SCCI 160500Z 26010KT 9999 BKN039 BKN055 04/02 Q0995 NOSIG